Airfield :
LOGIN :

Register | Disclaimer

   EN    FR    IT 

 










Legend :    VFR   Marginal VFR   IFR   Intensive IFR   Very Intensive IFR
Visi :
Ceiling :
>= 8 km
>= 3000ft
5 to 8 km
1000 to 3000 ft
1500m to 5 km
500 to 1000 ft
800 to 1500m
200 to 500 ft
< 800m
< 200 ft
Symbols :   Thunderstorms  Fog  Heavy snow  Heavy precipitations  Wind > 20 kt
SIGMETs :     Misc.  Thunderstorms  Icing  Turbulence  Mountain Waves  Volcanic Ashes






- Airport Elevation : 37 ft


EHVL - Vlieland Heliport

CURRENT METAR :
  • 200055Z AUTO 21025KT 6000 -DZ SCT006 BKN007 BKN008 07/07 Q1012 REDZ YLO

EXPIRED METARs :
  • 200039Z AUTO 21023KT 5000 -UP SCT005 BKN007 OVC008 07/07 Q1012 YLO
  • 200025Z AUTO 20022KT 6000 DZ FEW005 BKN006 BKN008 07/06 Q1012 YLO
  • 200000Z AUTO 20021KT 5000 -UP SCT005 BKN006 BKN008 07/06 Q1012 YLO
  • 192355Z AUTO 20020KT 9000 -UP FEW006 SCT007 BKN009 07/06 Q1012 GRN
  • 192329Z AUTO 21021KT 6000 -UP BKN006 OVC008 07/06 Q1013 YLO
  • 192304Z AUTO 20021KT 9000 BR SCT007 BKN008 BKN009 07/06 Q1013 GRN
  • 192255Z AUTO 20021KT 9000 BR FEW005 BKN006 OVC008 07/06 Q1013 YLO
  • 192225Z AUTO 20019KT 8000 -DZ SCT004 BKN006 OVC007 06/06 Q1013 YLO
  • 192208Z AUTO 20018KT 5000 -RA FEW005 BKN006 BKN007 06/06 Q1014 YLO

Expired Forecast.



MET'MAP, your aeronautical weather chart ! - Copyright ORBIFLY December 2007 - Disclaimer

ORBIFLY MET'MAP TEAM :

Programming & Development : Alexandra Zaïnal
Concept & original design : Baudouin d'Aumeries
Assistance for programming : Marc-Olivier Méhu
Technical & hardware support : Manuel Goepfert

Contact : metmap@orbifly.com




SOURCES & CREDITS :

   NOAA